sensor_id;sensor_type;location;lat;lon;timestamp;P1;durP1;ratioP1;P2;durP2;ratioP2
70320;SDS011;61127;55.826;37.046;2023-08-06T00:01:57;18.58;;;11.38;;
70320;SDS011;61127;55.826;37.046;2023-08-06T00:04:23;22.92;;;11.38;;
70320;SDS011;61127;55.826;37.046;2023-08-06T00:06:50;16.27;;;10.70;;
70320;SDS011;61127;55.826;37.046;2023-08-06T00:09:16;18.90;;;10.73;;
70320;SDS011;61127;55.826;37.046;2023-08-06T00:11:42;18.48;;;11.10;;
70320;SDS011;61127;55.826;37.046;2023-08-06T00:14:09;19.08;;;10.90;;
70320;SDS011;61127;55.826;37.046;2023-08-06T00:16:35;18.00;;;10.80;;
70320;SDS011;61127;55.826;37.046;2023-08-06T00:19:01;17.85;;;10.80;;
70320;SDS011;61127;55.826;37.046;2023-08-06T00:21:27;18.87;;;10.40;;
70320;SDS011;61127;55.826;37.046;2023-08-06T00:23:53;18.98;;;10.32;;
70320;SDS011;61127;55.826;37.046;2023-08-06T00:26:19;16.40;;;10.32;;
70320;SDS011;61127;55.826;37.046;2023-08-06T00:28:45;14.73;;;9.83;;
70320;SDS011;61127;55.826;37.046;2023-08-06T00:31:11;18.42;;;10.15;;
70320;SDS011;61127;55.826;37.046;2023-08-06T00:33:37;19.08;;;9.95;;
70320;SDS011;61127;55.826;37.046;2023-08-06T00:36:06;17.35;;;10.45;;
70320;SDS011;61127;55.826;37.046;2023-08-06T00:38:32;19.27;;;10.60;;
70320;SDS011;61127;55.826;37.046;2023-08-06T00:40:58;16.17;;;10.07;;
70320;SDS011;61127;55.826;37.046;2023-08-06T00:43:24;18.50;;;10.50;;
70320;SDS011;61127;55.826;37.046;2023-08-06T00:45:50;20.58;;;10.60;;
70320;SDS011;61127;55.826;37.046;2023-08-06T00:48:16;17.03;;;9.77;;
70320;SDS011;61127;55.826;37.046;2023-08-06T00:50:42;19.23;;;10.52;;
70320;SDS011;61127;55.826;37.046;2023-08-06T00:53:08;19.02;;;10.00;;
70320;SDS011;61127;55.826;37.046;2023-08-06T00:55:35;18.95;;;9.82;;
70320;SDS011;61127;55.826;37.046;2023-08-06T00:58:01;17.80;;;10.13;;
70320;SDS011;61127;55.826;37.046;2023-08-06T01:00:28;19.60;;;9.70;;
70320;SDS011;61127;55.826;37.046;2023-08-06T01:02:54;14.50;;;9.50;;
70320;SDS011;61127;55.826;37.046;2023-08-06T01:05:20;20.10;;;9.77;;
70320;SDS011;61127;55.826;37.046;2023-08-06T01:07:51;24.80;;;9.60;;
70320;SDS011;61127;55.826;37.046;2023-08-06T01:10:23;20.45;;;9.90;;
70320;SDS011;61127;55.826;37.046;2023-08-06T01:13:16;18.23;;;9.55;;
70320;SDS011;61127;55.826;37.046;2023-08-06T01:15:54;16.88;;;9.55;;
70320;SDS011;61127;55.826;37.046;2023-08-06T01:18:25;16.58;;;9.57;;
70320;SDS011;61127;55.826;37.046;2023-08-06T01:20:52;13.43;;;9.07;;
70320;SDS011;61127;55.826;37.046;2023-08-06T01:23:18;15.88;;;9.10;;
70320;SDS011;61127;55.826;37.046;2023-08-06T01:25:57;16.88;;;9.00;;
70320;SDS011;61127;55.826;37.046;2023-08-06T01:31:24;17.95;;;8.93;;
70320;SDS011;61127;55.826;37.046;2023-08-06T01:33:53;20.97;;;9.10;;
70320;SDS011;61127;55.826;37.046;2023-08-06T01:36:21;18.77;;;8.90;;
70320;SDS011;61127;55.826;37.046;2023-08-06T01:38:48;17.48;;;9.32;;
70320;SDS011;61127;55.826;37.046;2023-08-06T01:41:17;16.88;;;9.02;;
70320;SDS011;61127;55.826;37.046;2023-08-06T01:43:43;18.50;;;8.93;;
70320;SDS011;61127;55.826;37.046;2023-08-06T01:46:09;17.02;;;10.02;;
70320;SDS011;61127;55.826;37.046;2023-08-06T01:48:35;16.60;;;9.68;;
70320;SDS011;61127;55.826;37.046;2023-08-06T01:51:05;19.58;;;9.57;;
70320;SDS011;61127;55.826;37.046;2023-08-06T01:53:31;17.10;;;9.20;;
70320;SDS011;61127;55.826;37.046;2023-08-06T01:55:58;18.02;;;9.35;;
70320;SDS011;61127;55.826;37.046;2023-08-06T01:58:24;17.17;;;9.25;;
70320;SDS011;61127;55.826;37.046;2023-08-06T02:00:50;20.77;;;9.90;;
70320;SDS011;61127;55.826;37.046;2023-08-06T02:03:16;18.53;;;9.53;;
70320;SDS011;61127;55.826;37.046;2023-08-06T02:05:42;16.63;;;9.02;;
70320;SDS011;61127;55.826;37.046;2023-08-06T02:08:08;17.85;;;9.60;;
70320;SDS011;61127;55.826;37.046;2023-08-06T02:10:34;21.98;;;9.82;;
70320;SDS011;61127;55.826;37.046;2023-08-06T02:13:00;15.47;;;9.03;;
70320;SDS011;61127;55.826;37.046;2023-08-06T02:15:26;16.95;;;9.20;;
70320;SDS011;61127;55.826;37.046;2023-08-06T02:17:52;17.30;;;9.18;;
70320;SDS011;61127;55.826;37.046;2023-08-06T02:20:38;19.20;;;9.43;;
70320;SDS011;61127;55.826;37.046;2023-08-06T02:23:04;15.30;;;8.55;;
70320;SDS011;61127;55.826;37.046;2023-08-06T02:25:30;15.50;;;8.80;;
70320;SDS011;61127;55.826;37.046;2023-08-06T02:27:58;19.70;;;8.95;;
70320;SDS011;61127;55.826;37.046;2023-08-06T02:30:25;17.38;;;9.15;;
70320;SDS011;61127;55.826;37.046;2023-08-06T02:32:50;14.93;;;8.60;;
70320;SDS011;61127;55.826;37.046;2023-08-06T02:35:17;18.45;;;8.82;;
70320;SDS011;61127;55.826;37.046;2023-08-06T02:37:44;13.63;;;8.52;;
70320;SDS011;61127;55.826;37.046;2023-08-06T02:40:10;16.30;;;8.80;;
70320;SDS011;61127;55.826;37.046;2023-08-06T02:42:36;19.83;;;9.00;;
70320;SDS011;61127;55.826;37.046;2023-08-06T02:45:03;14.18;;;8.43;;
70320;SDS011;61127;55.826;37.046;2023-08-06T02:47:29;16.88;;;8.90;;
70320;SDS011;61127;55.826;37.046;2023-08-06T02:49:57;17.83;;;8.68;;
70320;SDS011;61127;55.826;37.046;2023-08-06T02:52:23;14.27;;;8.80;;
70320;SDS011;61127;55.826;37.046;2023-08-06T02:54:50;14.32;;;8.55;;
70320;SDS011;61127;55.826;37.046;2023-08-06T02:57:16;14.43;;;8.95;;
70320;SDS011;61127;55.826;37.046;2023-08-06T02:59:42;17.60;;;9.02;;
70320;SDS011;61127;55.826;37.046;2023-08-06T03:02:17;13.87;;;8.37;;
70320;SDS011;61127;55.826;37.046;2023-08-06T03:04:55;15.57;;;8.32;;
70320;SDS011;61127;55.826;37.046;2023-08-06T03:07:25;16.27;;;8.20;;
70320;SDS011;61127;55.826;37.046;2023-08-06T03:09:56;16.70;;;8.27;;
70320;SDS011;61127;55.826;37.046;2023-08-06T03:12:22;16.63;;;8.13;;
70320;SDS011;61127;55.826;37.046;2023-08-06T03:14:48;12.87;;;7.40;;
70320;SDS011;61127;55.826;37.046;2023-08-06T03:17:15;19.20;;;8.52;;
70320;SDS011;61127;55.826;37.046;2023-08-06T03:19:42;17.58;;;8.40;;
70320;SDS011;61127;55.826;37.046;2023-08-06T03:22:09;17.38;;;8.35;;
70320;SDS011;61127;55.826;37.046;2023-08-06T03:24:37;13.50;;;8.10;;
70320;SDS011;61127;55.826;37.046;2023-08-06T03:27:03;14.57;;;8.18;;
70320;SDS011;61127;55.826;37.046;2023-08-06T03:29:31;14.02;;;8.02;;
70320;SDS011;61127;55.826;37.046;2023-08-06T03:32:00;13.30;;;8.60;;
70320;SDS011;61127;55.826;37.046;2023-08-06T03:34:26;14.50;;;8.35;;
70320;SDS011;61127;55.826;37.046;2023-08-06T03:36:52;15.27;;;8.23;;
70320;SDS011;61127;55.826;37.046;2023-08-06T03:39:18;13.75;;;8.13;;
70320;SDS011;61127;55.826;37.046;2023-08-06T03:41:44;14.18;;;8.02;;
70320;SDS011;61127;55.826;37.046;2023-08-06T03:44:10;13.90;;;8.15;;
70320;SDS011;61127;55.826;37.046;2023-08-06T03:46:36;17.10;;;7.70;;
70320;SDS011;61127;55.826;37.046;2023-08-06T03:49:05;13.30;;;7.72;;
70320;SDS011;61127;55.826;37.046;2023-08-06T03:51:31;11.95;;;8.02;;
70320;SDS011;61127;55.826;37.046;2023-08-06T03:53:56;15.60;;;8.27;;
70320;SDS011;61127;55.826;37.046;2023-08-06T03:56:22;16.70;;;7.77;;
70320;SDS011;61127;55.826;37.046;2023-08-06T03:58:49;17.13;;;8.35;;
70320;SDS011;61127;55.826;37.046;2023-08-06T04:01:15;13.60;;;7.82;;
70320;SDS011;61127;55.826;37.046;2023-08-06T04:03:44;14.38;;;8.23;;
70320;SDS011;61127;55.826;37.046;2023-08-06T04:06:10;18.20;;;7.93;;
70320;SDS011;61127;55.826;37.046;2023-08-06T04:08:36;14.02;;;7.55;;
70320;SDS011;61127;55.826;37.046;2023-08-06T04:11:02;16.77;;;8.50;;
70320;SDS011;61127;55.826;37.046;2023-08-06T04:13:29;15.52;;;7.70;;
70320;SDS011;61127;55.826;37.046;2023-08-06T04:16:00;12.73;;;7.50;;
70320;SDS011;61127;55.826;37.046;2023-08-06T04:18:31;14.00;;;7.35;;
70320;SDS011;61127;55.826;37.046;2023-08-06T04:20:56;17.17;;;8.05;;
70320;SDS011;61127;55.826;37.046;2023-08-06T04:23:23;13.48;;;7.30;;
70320;SDS011;61127;55.826;37.046;2023-08-06T04:25:55;14.80;;;6.90;;
70320;SDS011;61127;55.826;37.046;2023-08-06T04:28:24;13.35;;;7.45;;
70320;SDS011;61127;55.826;37.046;2023-08-06T04:30:50;13.48;;;7.13;;
70320;SDS011;61127;55.826;37.046;2023-08-06T04:33:17;12.10;;;7.30;;
70320;SDS011;61127;55.826;37.046;2023-08-06T04:35:44;12.85;;;7.22;;
70320;SDS011;61127;55.826;37.046;2023-08-06T04:38:11;17.20;;;7.70;;
70320;SDS011;61127;55.826;37.046;2023-08-06T04:40:36;12.88;;;6.95;;
70320;SDS011;61127;55.826;37.046;2023-08-06T04:43:03;17.65;;;7.35;;
70320;SDS011;61127;55.826;37.046;2023-08-06T04:45:32;16.10;;;6.68;;
70320;SDS011;61127;55.826;37.046;2023-08-06T04:47:58;13.87;;;7.83;;
70320;SDS011;61127;55.826;37.046;2023-08-06T04:50:24;15.00;;;7.40;;
70320;SDS011;61127;55.826;37.046;2023-08-06T04:52:50;11.85;;;7.10;;
70320;SDS011;61127;55.826;37.046;2023-08-06T04:55:16;11.57;;;7.43;;
70320;SDS011;61127;55.826;37.046;2023-08-06T04:57:41;14.37;;;7.03;;
70320;SDS011;61127;55.826;37.046;2023-08-06T05:00:07;10.90;;;7.28;;
70320;SDS011;61127;55.826;37.046;2023-08-06T05:02:33;12.68;;;7.45;;
70320;SDS011;61127;55.826;37.046;2023-08-06T05:05:00;13.70;;;7.55;;
70320;SDS011;61127;55.826;37.046;2023-08-06T05:07:26;12.87;;;7.90;;
70320;SDS011;61127;55.826;37.046;2023-08-06T05:09:52;15.25;;;8.23;;
70320;SDS011;61127;55.826;37.046;2023-08-06T05:12:19;11.95;;;8.05;;
70320;SDS011;61127;55.826;37.046;2023-08-06T05:14:45;12.65;;;7.85;;
70320;SDS011;61127;55.826;37.046;2023-08-06T05:17:11;15.77;;;7.70;;
70320;SDS011;61127;55.826;37.046;2023-08-06T05:19:36;17.42;;;8.68;;
70320;SDS011;61127;55.826;37.046;2023-08-06T05:22:04;13.77;;;8.50;;
70320;SDS011;61127;55.826;37.046;2023-08-06T05:24:30;12.90;;;8.50;;
70320;SDS011;61127;55.826;37.046;2023-08-06T05:26:55;12.50;;;7.60;;
70320;SDS011;61127;55.826;37.046;2023-08-06T05:29:21;14.70;;;9.07;;
70320;SDS011;61127;55.826;37.046;2023-08-06T05:31:47;13.93;;;7.90;;
70320;SDS011;61127;55.826;37.046;2023-08-06T05:34:13;14.98;;;8.25;;
70320;SDS011;61127;55.826;37.046;2023-08-06T05:36:39;18.65;;;8.25;;
70320;SDS011;61127;55.826;37.046;2023-08-06T05:39:05;14.80;;;7.63;;
70320;SDS011;61127;55.826;37.046;2023-08-06T05:41:31;14.55;;;6.95;;
70320;SDS011;61127;55.826;37.046;2023-08-06T05:43:59;12.48;;;6.93;;
70320;SDS011;61127;55.826;37.046;2023-08-06T05:46:25;11.37;;;7.10;;
70320;SDS011;61127;55.826;37.046;2023-08-06T05:48:51;11.77;;;7.43;;
70320;SDS011;61127;55.826;37.046;2023-08-06T05:51:17;18.27;;;7.27;;
70320;SDS011;61127;55.826;37.046;2023-08-06T05:53:43;14.37;;;6.60;;
70320;SDS011;61127;55.826;37.046;2023-08-06T05:56:09;14.95;;;6.85;;
70320;SDS011;61127;55.826;37.046;2023-08-06T05:58:35;16.25;;;6.63;;
70320;SDS011;61127;55.826;37.046;2023-08-06T06:01:01;11.47;;;6.80;;
70320;SDS011;61127;55.826;37.046;2023-08-06T06:03:27;10.48;;;6.18;;
70320;SDS011;61127;55.826;37.046;2023-08-06T06:05:53;10.82;;;6.15;;
70320;SDS011;61127;55.826;37.046;2023-08-06T06:08:19;11.98;;;6.28;;
70320;SDS011;61127;55.826;37.046;2023-08-06T06:10:45;12.77;;;6.40;;
70320;SDS011;61127;55.826;37.046;2023-08-06T06:13:11;11.77;;;6.50;;
70320;SDS011;61127;55.826;37.046;2023-08-06T06:15:37;10.70;;;6.07;;
70320;SDS011;61127;55.826;37.046;2023-08-06T06:18:03;13.38;;;6.20;;
70320;SDS011;61127;55.826;37.046;2023-08-06T06:20:31;13.63;;;6.37;;
70320;SDS011;61127;55.826;37.046;2023-08-06T06:22:58;17.23;;;6.82;;
70320;SDS011;61127;55.826;37.046;2023-08-06T06:25:24;15.30;;;6.85;;
70320;SDS011;61127;55.826;37.046;2023-08-06T06:27:50;13.00;;;6.30;;
70320;SDS011;61127;55.826;37.046;2023-08-06T06:30:16;11.85;;;6.38;;
70320;SDS011;61127;55.826;37.046;2023-08-06T06:32:43;9.48;;;5.85;;
70320;SDS011;61127;55.826;37.046;2023-08-06T06:35:08;9.07;;;5.70;;
70320;SDS011;61127;55.826;37.046;2023-08-06T06:37:35;10.02;;;5.45;;
70320;SDS011;61127;55.826;37.046;2023-08-06T06:40:01;10.73;;;5.38;;
70320;SDS011;61127;55.826;37.046;2023-08-06T06:42:27;9.00;;;5.43;;
70320;SDS011;61127;55.826;37.046;2023-08-06T06:44:58;11.32;;;5.97;;
70320;SDS011;61127;55.826;37.046;2023-08-06T06:47:25;12.70;;;6.47;;
70320;SDS011;61127;55.826;37.046;2023-08-06T06:49:51;10.10;;;5.80;;
70320;SDS011;61127;55.826;37.046;2023-08-06T06:52:17;14.30;;;5.67;;
70320;SDS011;61127;55.826;37.046;2023-08-06T06:54:43;11.60;;;6.10;;
70320;SDS011;61127;55.826;37.046;2023-08-06T06:57:09;12.45;;;6.88;;
70320;SDS011;61127;55.826;37.046;2023-08-06T06:59:34;12.20;;;6.43;;
70320;SDS011;61127;55.826;37.046;2023-08-06T07:02:00;13.07;;;5.15;;
70320;SDS011;61127;55.826;37.046;2023-08-06T07:04:26;10.20;;;5.47;;
70320;SDS011;61127;55.826;37.046;2023-08-06T07:06:52;12.07;;;5.45;;
70320;SDS011;61127;55.826;37.046;2023-08-06T07:09:19;11.30;;;5.33;;
70320;SDS011;61127;55.826;37.046;2023-08-06T07:11:45;7.75;;;4.78;;
70320;SDS011;61127;55.826;37.046;2023-08-06T07:14:11;10.02;;;5.10;;
70320;SDS011;61127;55.826;37.046;2023-08-06T07:16:37;10.38;;;5.30;;
70320;SDS011;61127;55.826;37.046;2023-08-06T07:19:03;8.67;;;4.90;;
70320;SDS011;61127;55.826;37.046;2023-08-06T07:21:30;7.50;;;4.68;;
70320;SDS011;61127;55.826;37.046;2023-08-06T07:23:57;10.48;;;4.57;;
70320;SDS011;61127;55.826;37.046;2023-08-06T07:26:25;10.80;;;4.60;;
70320;SDS011;61127;55.826;37.046;2023-08-06T07:28:51;6.73;;;4.50;;
70320;SDS011;61127;55.826;37.046;2023-08-06T07:31:17;9.52;;;4.80;;
70320;SDS011;61127;55.826;37.046;2023-08-06T07:33:43;8.73;;;4.25;;
70320;SDS011;61127;55.826;37.046;2023-08-06T07:36:13;7.30;;;4.00;;
70320;SDS011;61127;55.826;37.046;2023-08-06T07:38:39;6.47;;;4.00;;
70320;SDS011;61127;55.826;37.046;2023-08-06T07:41:06;8.48;;;4.50;;
70320;SDS011;61127;55.826;37.046;2023-08-06T07:43:32;6.82;;;4.20;;
70320;SDS011;61127;55.826;37.046;2023-08-06T07:46:01;8.90;;;4.35;;
70320;SDS011;61127;55.826;37.046;2023-08-06T07:48:27;7.70;;;4.20;;
70320;SDS011;61127;55.826;37.046;2023-08-06T07:50:54;5.72;;;4.30;;
70320;SDS011;61127;55.826;37.046;2023-08-06T07:53:21;10.75;;;4.75;;
70320;SDS011;61127;55.826;37.046;2023-08-06T07:55:51;12.20;;;5.00;;
70320;SDS011;61127;55.826;37.046;2023-08-06T07:58:18;7.30;;;4.25;;
70320;SDS011;61127;55.826;37.046;2023-08-06T08:00:44;7.43;;;4.00;;
70320;SDS011;61127;55.826;37.046;2023-08-06T08:03:14;6.50;;;4.13;;
70320;SDS011;61127;55.826;37.046;2023-08-06T08:05:41;10.10;;;4.60;;
70320;SDS011;61127;55.826;37.046;2023-08-06T08:08:10;8.60;;;4.30;;
70320;SDS011;61127;55.826;37.046;2023-08-06T08:10:36;7.63;;;4.05;;
70320;SDS011;61127;55.826;37.046;2023-08-06T08:13:03;8.07;;;4.50;;
70320;SDS011;61127;55.826;37.046;2023-08-06T08:15:30;7.25;;;4.45;;
70320;SDS011;61127;55.826;37.046;2023-08-06T08:17:57;8.48;;;4.68;;
70320;SDS011;61127;55.826;37.046;2023-08-06T08:20:23;10.45;;;4.13;;
70320;SDS011;61127;55.826;37.046;2023-08-06T08:22:49;6.87;;;4.50;;
70320;SDS011;61127;55.826;37.046;2023-08-06T08:25:15;7.15;;;4.78;;
70320;SDS011;61127;55.826;37.046;2023-08-06T08:27:42;6.80;;;4.45;;
70320;SDS011;61127;55.826;37.046;2023-08-06T08:30:10;8.10;;;4.40;;
70320;SDS011;61127;55.826;37.046;2023-08-06T08:32:36;8.57;;;4.83;;
70320;SDS011;61127;55.826;37.046;2023-08-06T08:35:01;8.50;;;4.30;;
70320;SDS011;61127;55.826;37.046;2023-08-06T08:37:28;9.48;;;4.53;;
70320;SDS011;61127;55.826;37.046;2023-08-06T08:39:54;8.53;;;5.10;;
70320;SDS011;61127;55.826;37.046;2023-08-06T08:42:21;8.25;;;5.07;;
70320;SDS011;61127;55.826;37.046;2023-08-06T08:44:47;7.90;;;5.00;;
70320;SDS011;61127;55.826;37.046;2023-08-06T08:47:13;7.10;;;5.10;;
70320;SDS011;61127;55.826;37.046;2023-08-06T08:49:41;9.02;;;5.03;;
70320;SDS011;61127;55.826;37.046;2023-08-06T08:52:08;7.65;;;4.93;;
70320;SDS011;61127;55.826;37.046;2023-08-06T08:54:37;10.27;;;5.40;;
70320;SDS011;61127;55.826;37.046;2023-08-06T08:57:04;8.55;;;5.15;;
70320;SDS011;61127;55.826;37.046;2023-08-06T08:59:31;10.73;;;5.30;;
70320;SDS011;61127;55.826;37.046;2023-08-06T09:02:00;9.60;;;5.00;;
70320;SDS011;61127;55.826;37.046;2023-08-06T09:04:26;6.47;;;5.18;;
70320;SDS011;61127;55.826;37.046;2023-08-06T09:06:57;10.23;;;5.28;;
70320;SDS011;61127;55.826;37.046;2023-08-06T09:09:34;11.02;;;5.63;;
70320;SDS011;61127;55.826;37.046;2023-08-06T09:12:14;11.75;;;5.97;;
70320;SDS011;61127;55.826;37.046;2023-08-06T09:14:40;13.57;;;5.68;;
70320;SDS011;61127;55.826;37.046;2023-08-06T09:17:07;11.63;;;5.55;;
70320;SDS011;61127;55.826;37.046;2023-08-06T09:19:34;8.93;;;5.88;;
70320;SDS011;61127;55.826;37.046;2023-08-06T09:22:00;9.00;;;5.60;;
70320;SDS011;61127;55.826;37.046;2023-08-06T09:24:26;9.07;;;5.68;;
70320;SDS011;61127;55.826;37.046;2023-08-06T09:26:52;7.10;;;5.47;;
70320;SDS011;61127;55.826;37.046;2023-08-06T09:29:18;13.70;;;5.70;;
70320;SDS011;61127;55.826;37.046;2023-08-06T09:31:45;10.87;;;6.03;;
70320;SDS011;61127;55.826;37.046;2023-08-06T09:34:23;12.43;;;6.03;;
70320;SDS011;61127;55.826;37.046;2023-08-06T09:36:52;10.55;;;6.22;;
70320;SDS011;61127;55.826;37.046;2023-08-06T09:39:20;9.95;;;6.07;;
70320;SDS011;61127;55.826;37.046;2023-08-06T09:41:48;11.15;;;5.85;;
70320;SDS011;61127;55.826;37.046;2023-08-06T09:44:20;7.77;;;5.77;;
70320;SDS011;61127;55.826;37.046;2023-08-06T09:46:56;8.15;;;5.45;;
70320;SDS011;61127;55.826;37.046;2023-08-06T09:49:26;8.25;;;5.63;;
70320;SDS011;61127;55.826;37.046;2023-08-06T09:51:58;12.02;;;5.70;;
70320;SDS011;61127;55.826;37.046;2023-08-06T09:54:25;9.55;;;5.80;;
70320;SDS011;61127;55.826;37.046;2023-08-06T09:56:53;10.50;;;5.90;;
70320;SDS011;61127;55.826;37.046;2023-08-06T09:59:20;10.73;;;6.25;;
70320;SDS011;61127;55.826;37.046;2023-08-06T10:01:46;16.45;;;6.47;;
70320;SDS011;61127;55.826;37.046;2023-08-06T10:04:13;12.90;;;6.40;;
70320;SDS011;61127;55.826;37.046;2023-08-06T10:06:42;9.23;;;6.13;;
70320;SDS011;61127;55.826;37.046;2023-08-06T10:09:08;10.50;;;6.10;;
70320;SDS011;61127;55.826;37.046;2023-08-06T10:11:38;8.85;;;6.30;;
70320;SDS011;61127;55.826;37.046;2023-08-06T10:14:10;8.98;;;6.10;;
70320;SDS011;61127;55.826;37.046;2023-08-06T10:16:40;10.40;;;5.80;;
70320;SDS011;61127;55.826;37.046;2023-08-06T10:19:07;9.18;;;6.35;;
70320;SDS011;61127;55.826;37.046;2023-08-06T10:21:35;9.53;;;6.17;;
70320;SDS011;61127;55.826;37.046;2023-08-06T10:24:01;11.30;;;5.80;;
70320;SDS011;61127;55.826;37.046;2023-08-06T10:26:28;8.77;;;6.32;;
70320;SDS011;61127;55.826;37.046;2023-08-06T10:28:55;8.15;;;6.50;;
70320;SDS011;61127;55.826;37.046;2023-08-06T10:35:12;9.48;;;6.15;;
70320;SDS011;61127;55.826;37.046;2023-08-06T10:37:23;11.00;;;6.80;;
70320;SDS011;61127;55.826;37.046;2023-08-06T10:39:59;7.68;;;6.20;;
70320;SDS011;61127;55.826;37.046;2023-08-06T10:42:28;9.85;;;6.65;;
70320;SDS011;61127;55.826;37.046;2023-08-06T10:45:14;9.55;;;6.50;;
70320;SDS011;61127;55.826;37.046;2023-08-06T10:47:42;8.75;;;6.57;;
70320;SDS011;61127;55.826;37.046;2023-08-06T10:50:15;10.70;;;7.18;;
70320;SDS011;61127;55.826;37.046;2023-08-06T10:52:45;9.30;;;6.75;;
70320;SDS011;61127;55.826;37.046;2023-08-06T10:55:13;9.60;;;6.90;;
70320;SDS011;61127;55.826;37.046;2023-08-06T10:57:47;11.40;;;7.50;;
70320;SDS011;61127;55.826;37.046;2023-08-06T11:00:13;9.55;;;7.35;;
70320;SDS011;61127;55.826;37.046;2023-08-06T11:02:39;12.48;;;7.90;;
70320;SDS011;61127;55.826;37.046;2023-08-06T11:05:05;12.97;;;7.73;;
70320;SDS011;61127;55.826;37.046;2023-08-06T11:07:35;9.60;;;6.63;;
70320;SDS011;61127;55.826;37.046;2023-08-06T11:10:04;10.50;;;7.68;;
70320;SDS011;61127;55.826;37.046;2023-08-06T11:12:32;10.80;;;8.40;;
70320;SDS011;61127;55.826;37.046;2023-08-06T11:14:58;12.73;;;8.53;;
70320;SDS011;61127;55.826;37.046;2023-08-06T11:17:26;8.20;;;7.28;;
70320;SDS011;61127;55.826;37.046;2023-08-06T11:19:53;9.23;;;7.20;;
70320;SDS011;61127;55.826;37.046;2023-08-06T11:22:20;10.20;;;7.90;;
70320;SDS011;61127;55.826;37.046;2023-08-06T11:24:47;9.63;;;7.93;;
70320;SDS011;61127;55.826;37.046;2023-08-06T11:27:17;9.73;;;7.63;;
70320;SDS011;61127;55.826;37.046;2023-08-06T11:29:43;10.02;;;7.28;;
70320;SDS011;61127;55.826;37.046;2023-08-06T11:32:10;12.07;;;7.70;;
70320;SDS011;61127;55.826;37.046;2023-08-06T11:34:37;9.18;;;7.78;;
70320;SDS011;61127;55.826;37.046;2023-08-06T11:37:03;11.70;;;8.50;;
70320;SDS011;61127;55.826;37.046;2023-08-06T11:39:33;13.17;;;8.33;;
70320;SDS011;61127;55.826;37.046;2023-08-06T11:42:03;11.77;;;8.60;;
70320;SDS011;61127;55.826;37.046;2023-08-06T11:44:30;10.48;;;9.45;;
70320;SDS011;61127;55.826;37.046;2023-08-06T11:46:58;10.45;;;9.07;;
70320;SDS011;61127;55.826;37.046;2023-08-06T11:52:22;10.53;;;9.53;;
70320;SDS011;61127;55.826;37.046;2023-08-06T11:55:04;11.15;;;9.32;;
70320;SDS011;61127;55.826;37.046;2023-08-06T11:57:33;12.00;;;9.90;;
70320;SDS011;61127;55.826;37.046;2023-08-06T12:02:41;10.70;;;9.70;;
70320;SDS011;61127;55.826;37.046;2023-08-06T12:05:15;8.77;;;7.97;;
70320;SDS011;61127;55.826;37.046;2023-08-06T12:07:43;10.38;;;6.93;;
70320;SDS011;61127;55.826;37.046;2023-08-06T12:10:12;9.80;;;8.13;;
70320;SDS011;61127;55.826;37.046;2023-08-06T12:12:42;11.45;;;8.05;;
70320;SDS011;61127;55.826;37.046;2023-08-06T12:15:12;13.15;;;9.50;;
70320;SDS011;61127;55.826;37.046;2023-08-06T12:17:47;10.23;;;8.60;;
70320;SDS011;61127;55.826;37.046;2023-08-06T12:20:14;10.48;;;9.38;;
70320;SDS011;61127;55.826;37.046;2023-08-06T12:22:42;11.23;;;9.07;;
70320;SDS011;61127;55.826;37.046;2023-08-06T12:25:12;12.20;;;9.45;;
70320;SDS011;61127;55.826;37.046;2023-08-06T12:27:43;11.00;;;9.90;;
70320;SDS011;61127;55.826;37.046;2023-08-06T12:30:12;10.77;;;9.87;;
70320;SDS011;61127;55.826;37.046;2023-08-06T12:32:38;10.80;;;9.60;;
70320;SDS011;61127;55.826;37.046;2023-08-06T12:35:04;10.90;;;9.35;;
70320;SDS011;61127;55.826;37.046;2023-08-06T12:37:35;12.55;;;9.60;;
70320;SDS011;61127;55.826;37.046;2023-08-06T12:40:04;9.85;;;8.95;;
70320;SDS011;61127;55.826;37.046;2023-08-06T12:42:37;10.50;;;7.33;;
70320;SDS011;61127;55.826;37.046;2023-08-06T12:45:03;11.23;;;6.47;;
70320;SDS011;61127;55.826;37.046;2023-08-06T12:47:29;9.85;;;7.30;;
70320;SDS011;61127;55.826;37.046;2023-08-06T12:49:55;9.95;;;7.70;;
70320;SDS011;61127;55.826;37.046;2023-08-06T12:52:21;14.10;;;7.40;;
70320;SDS011;61127;55.826;37.046;2023-08-06T12:54:47;14.70;;;7.50;;
70320;SDS011;61127;55.826;37.046;2023-08-06T12:57:12;15.07;;;7.00;;
70320;SDS011;61127;55.826;37.046;2023-08-06T12:59:39;14.82;;;7.57;;
70320;SDS011;61127;55.826;37.046;2023-08-06T13:02:05;15.02;;;7.38;;
70320;SDS011;61127;55.826;37.046;2023-08-06T13:04:30;14.70;;;7.30;;
70320;SDS011;61127;55.826;37.046;2023-08-06T13:06:57;8.40;;;7.38;;
70320;SDS011;61127;55.826;37.046;2023-08-06T13:09:22;11.30;;;7.55;;
70320;SDS011;61127;55.826;37.046;2023-08-06T13:11:48;12.05;;;7.82;;
70320;SDS011;61127;55.826;37.046;2023-08-06T13:14:16;12.52;;;8.07;;
70320;SDS011;61127;55.826;37.046;2023-08-06T13:16:43;11.10;;;8.57;;
70320;SDS011;61127;55.826;37.046;2023-08-06T13:19:10;12.57;;;8.32;;
70320;SDS011;61127;55.826;37.046;2023-08-06T13:24:07;13.73;;;8.90;;
70320;SDS011;61127;55.826;37.046;2023-08-06T13:26:34;12.48;;;8.00;;
70320;SDS011;61127;55.826;37.046;2023-08-06T13:29:00;9.85;;;7.70;;
70320;SDS011;61127;55.826;37.046;2023-08-06T13:31:27;10.15;;;7.50;;
70320;SDS011;61127;55.826;37.046;2023-08-06T13:33:56;10.48;;;7.72;;
70320;SDS011;61127;55.826;37.046;2023-08-06T13:36:28;12.98;;;8.35;;
70320;SDS011;61127;55.826;37.046;2023-08-06T13:38:57;14.65;;;8.90;;
70320;SDS011;61127;55.826;37.046;2023-08-06T13:41:23;11.93;;;7.93;;
70320;SDS011;61127;55.826;37.046;2023-08-06T13:43:49;14.55;;;7.85;;
70320;SDS011;61127;55.826;37.046;2023-08-06T13:46:15;13.32;;;7.80;;
70320;SDS011;61127;55.826;37.046;2023-08-06T13:48:46;11.47;;;7.40;;
70320;SDS011;61127;55.826;37.046;2023-08-06T13:51:14;14.48;;;7.00;;
70320;SDS011;61127;55.826;37.046;2023-08-06T13:53:40;9.05;;;6.65;;
70320;SDS011;61127;55.826;37.046;2023-08-06T13:56:06;11.55;;;6.10;;
70320;SDS011;61127;55.826;37.046;2023-08-06T13:58:33;11.23;;;6.72;;
70320;SDS011;61127;55.826;37.046;2023-08-06T14:00:59;13.50;;;6.07;;
70320;SDS011;61127;55.826;37.046;2023-08-06T14:03:25;8.77;;;6.05;;
70320;SDS011;61127;55.826;37.046;2023-08-06T14:05:50;10.07;;;5.78;;
70320;SDS011;61127;55.826;37.046;2023-08-06T14:08:17;7.77;;;6.23;;
70320;SDS011;61127;55.826;37.046;2023-08-06T14:10:45;12.55;;;6.25;;
70320;SDS011;61127;55.826;37.046;2023-08-06T14:13:11;9.15;;;5.45;;
70320;SDS011;61127;55.826;37.046;2023-08-06T14:15:38;25.52;;;10.07;;
70320;SDS011;61127;55.826;37.046;2023-08-06T14:18:07;9.10;;;5.83;;
70320;SDS011;61127;55.826;37.046;2023-08-06T14:20:39;10.57;;;5.60;;
70320;SDS011;61127;55.826;37.046;2023-08-06T14:23:09;11.40;;;5.80;;
70320;SDS011;61127;55.826;37.046;2023-08-06T14:25:35;10.13;;;5.35;;
70320;SDS011;61127;55.826;37.046;2023-08-06T14:28:16;9.43;;;6.00;;
70320;SDS011;61127;55.826;37.046;2023-08-06T14:30:42;10.60;;;6.33;;
70320;SDS011;61127;55.826;37.046;2023-08-06T14:33:08;12.50;;;6.60;;
70320;SDS011;61127;55.826;37.046;2023-08-06T14:35:34;12.80;;;6.82;;
70320;SDS011;61127;55.826;37.046;2023-08-06T14:38:00;18.17;;;7.20;;
70320;SDS011;61127;55.826;37.046;2023-08-06T14:40:34;9.93;;;6.70;;